Hlavní strana
METAR-TAF:

METAR-TAF

Letiště :

Sandane, Norsko

zeměpisná šířka: 61-50N, zeměpisná délka: 006-07E, výška: 6 m

Aktuální stav počasí

Zpráva byla vytvořena před 5 hodinami a 49 minutami, v 21:20 UTC
vítr z různých směrů 2 kt
Teplota -2°C
Vlhkost vzduchu 100%
Tlak 1017 hPa
Viditelnost 10 km a více
Skoro jasno ve výšce 500 ft
Polojasno ve výšce 1300 ft

METAR: ENSD 172120Z VRB02KT 9999 FEW005 SCT013 M02/M02 Q1017 RMK WIND 1138FT VRB02KT

Čas: 04:09 (03:09 UTC)


TAF: chybějící

Stav a předpovědi počasí z více než 4 000 letišť (zprávy METAR a TAF).

Červené a žluté tečky na mapě představují dostupné meteorologické stanice.

Když kurzor umístíte na tečku, zobrazí se název stanice.

Pak kliknutím zobrazíte stav a předpověď počasí.

Chcete-li změnit mapu, kliknutím na zelené tlačítko se znaménkem +mapu přiblížíte, kliknutím na zelené tlačítko se znaménkem – mapu oddálíte a kliknutím na zelené šipky přejdete na sousední mapy.


METAR-TAF: